UAL1228 KBOS-KEWR
Flight info
| Callsign | UAL1228 |
|---|---|
| Flight time | N/A |
| Altitude | 20000 |
| Route | PATSS7 PATSS NELIE FLOSI4 |
| Aircraft | B738/M-SDE2E3FGHIRWXY/LB1 |
Departure
| Time | 2026-05-05 02:55 |
|---|---|
| Airport | Boston Logan International Airport (KBOS) |
Arrival
| Time | N/A |
|---|---|
| Airport | Newark Liberty International Airport (KEWR) |
| Time | Latitude | Longitude | Altitude | Speed | Heading |
|---|---|---|---|---|---|
| 2026-05-05 02:43 | 42.36837 | -71.01461 | 15 ft | 0 kts | 250° |
| 2026-05-05 02:47 | 42.36840 | -71.01450 | 15 ft | 2 kts | 250° |
| 2026-05-05 02:48 | 42.36843 | -71.01438 | 15 ft | 2 kts | 250° |
| 2026-05-05 02:48 | 42.36851 | -71.01421 | 15 ft | 2 kts | 221° |
| 2026-05-05 02:48 | 42.36863 | -71.01410 | 15 ft | 2 kts | 201° |
| 2026-05-05 02:48 | 42.36878 | -71.01405 | 15 ft | 2 kts | 179° |
| 2026-05-05 02:49 | 42.36893 | -71.01409 | 15 ft | 2 kts | 156° |
| 2026-05-05 02:49 | 42.36904 | -71.01418 | 15 ft | 0 kts | 138° |
| 2026-05-05 02:49 | 42.36908 | -71.01424 | 15 ft | 1 kts | 135° |
| 2026-05-05 02:49 | 42.36909 | -71.01425 | 15 ft | 0 kts | 135° |
| 2026-05-05 02:51 | 42.36894 | -71.01405 | 15 ft | 13 kts | 135° |
| 2026-05-05 02:51 | 42.36852 | -71.01273 | 15 ft | 16 kts | 66° |
| 2026-05-05 02:51 | 42.36928 | -71.01172 | 15 ft | 15 kts | 40° |
| 2026-05-05 02:52 | 42.37011 | -71.01092 | 14 ft | 14 kts | 26° |
| 2026-05-05 02:52 | 42.37105 | -71.01031 | 12 ft | 15 kts | 26° |
| 2026-05-05 02:52 | 42.37201 | -71.00968 | 11 ft | 15 kts | 26° |
| 2026-05-05 02:52 | 42.37302 | -71.00903 | 11 ft | 17 kts | 22° |
| 2026-05-05 02:53 | 42.37416 | -71.00848 | 11 ft | 17 kts | 19° |
| 2026-05-05 02:53 | 42.37526 | -71.00794 | 11 ft | 16 kts | 20° |
| 2026-05-05 02:53 | 42.37629 | -71.00745 | 11 ft | 15 kts | 19° |
| 2026-05-05 02:53 | 42.37728 | -71.00697 | 11 ft | 14 kts | 19° |
| 2026-05-05 02:54 | 42.37814 | -71.00653 | 11 ft | 10 kts | 31° |
| 2026-05-05 02:54 | 42.37835 | -71.00565 | 11 ft | 11 kts | 108° |
| 2026-05-05 02:54 | 42.37811 | -71.00481 | 11 ft | 6 kts | 112° |
| 2026-05-05 02:54 | 42.37793 | -71.00468 | 11 ft | 1 kts | 198° |
| 2026-05-05 02:55 | 42.37738 | -71.00496 | 11 ft | 33 kts | 200° |
| 2026-05-05 02:55 | 42.37266 | -71.00724 | 11 ft | 107 kts | 199° |
| 2026-05-05 02:55 | 42.36367 | -71.01158 | 50 ft | 160 kts | 200° |
| 2026-05-05 02:55 | 42.35300 | -71.01650 | 736 ft | 166 kts | 197° |
| 2026-05-05 02:56 | 42.34140 | -71.01565 | 1441 ft | 180 kts | 164° |
| 2026-05-05 02:56 | 42.33144 | -71.00436 | 2054 ft | 203 kts | 137° |
| 2026-05-05 02:56 | 42.32278 | -70.98834 | 2603 ft | 216 kts | 134° |
| 2026-05-05 02:56 | 42.31470 | -70.97053 | 3125 ft | 235 kts | 119° |
| 2026-05-05 02:57 | 42.31152 | -70.94807 | 3679 ft | 259 kts | 89° |
| 2026-05-05 02:57 | 42.31450 | -70.92366 | 4302 ft | 272 kts | 77° |
| 2026-05-05 02:57 | 42.31912 | -70.89816 | 4954 ft | 284 kts | 77° |
| 2026-05-05 02:57 | 42.32354 | -70.87225 | 5724 ft | 290 kts | 77° |
| 2026-05-05 02:58 | 42.32759 | -70.84563 | 6573 ft | 292 kts | 78° |
| 2026-05-05 02:58 | 42.33089 | -70.81845 | 7382 ft | 296 kts | 84° |
| 2026-05-05 02:58 | 42.32960 | -70.79073 | 8128 ft | 301 kts | 106° |
| 2026-05-05 02:58 | 42.32149 | -70.76501 | 8988 ft | 301 kts | 119° |
| 2026-05-05 02:59 | 42.30904 | -70.74223 | 9693 ft | 304 kts | 140° |
| 2026-05-05 02:59 | 42.29160 | -70.72716 | 10344 ft | 304 kts | 160° |
| 2026-05-05 02:59 | 42.27099 | -70.71999 | 10963 ft | 307 kts | 177° |
| 2026-05-05 02:59 | 42.24978 | -70.71954 | 11624 ft | 309 kts | 189° |
| 2026-05-05 03:00 | 42.22859 | -70.72461 | 12395 ft | 307 kts | 203° |
| 2026-05-05 03:00 | 42.21011 | -70.73797 | 13190 ft | 301 kts | 222° |
| 2026-05-05 03:00 | 42.19566 | -70.75751 | 13984 ft | 297 kts | 236° |
| 2026-05-05 03:00 | 42.18397 | -70.78129 | 14407 ft | 310 kts | 245° |
| 2026-05-05 03:01 | 42.17637 | -70.80847 | 14838 ft | 321 kts | 257° |
| 2026-05-05 03:01 | 42.17181 | -70.83871 | 15319 ft | 334 kts | 262° |
| 2026-05-05 03:01 | 42.16812 | -70.86992 | 15755 ft | 348 kts | 262° |
| 2026-05-05 03:01 | 42.16430 | -70.90275 | 16165 ft | 362 kts | 262° |
| 2026-05-05 03:02 | 42.16009 | -70.93700 | 16585 ft | 376 kts | 262° |
| 2026-05-05 03:02 | 42.15610 | -70.97202 | 17297 ft | 380 kts | 263° |
| 2026-05-05 03:02 | 42.15286 | -71.00715 | 18047 ft | 383 kts | 264° |
| 2026-05-05 03:02 | 42.14992 | -71.04289 | 18884 ft | 384 kts | 265° |
| 2026-05-05 03:03 | 42.14704 | -71.07859 | 19582 ft | 386 kts | 265° |
| 2026-05-05 03:03 | 42.14407 | -71.11437 | 19915 ft | 392 kts | 265° |
| 2026-05-05 03:03 | 42.14090 | -71.15113 | 19939 ft | 392 kts | 265° |
| 2026-05-05 03:03 | 42.13771 | -71.18732 | 19941 ft | 389 kts | 265° |
| 2026-05-05 03:04 | 42.13444 | -71.22365 | 19939 ft | 390 kts | 264° |
| 2026-05-05 03:04 | 42.13118 | -71.25962 | 19939 ft | 390 kts | 264° |
| 2026-05-05 03:04 | 42.12786 | -71.29603 | 19939 ft | 390 kts | 264° |
| 2026-05-05 03:04 | 42.12455 | -71.33207 | 19931 ft | 392 kts | 264° |
| 2026-05-05 03:05 | 42.12123 | -71.36807 | 19934 ft | 390 kts | 264° |
| 2026-05-05 03:05 | 42.11795 | -71.40370 | 19964 ft | 392 kts | 264° |
| 2026-05-05 03:05 | 42.11450 | -71.44094 | 19923 ft | 389 kts | 264° |
| 2026-05-05 03:05 | 42.11115 | -71.47696 | 19943 ft | 391 kts | 265° |
| 2026-05-05 03:06 | 42.10775 | -71.51350 | 19931 ft | 392 kts | 265° |
| 2026-05-05 03:06 | 42.10435 | -71.54955 | 19944 ft | 390 kts | 264° |
| 2026-05-05 03:06 | 42.10091 | -71.58609 | 19944 ft | 392 kts | 265° |
| 2026-05-05 03:06 | 42.09745 | -71.62257 | 19936 ft | 393 kts | 265° |
| 2026-05-05 03:07 | 42.09401 | -71.65890 | 19915 ft | 392 kts | 264° |
| 2026-05-05 03:07 | 42.09056 | -71.69507 | 19917 ft | 392 kts | 264° |
| 2026-05-05 03:07 | 42.08687 | -71.73106 | 19911 ft | 392 kts | 263° |
| 2026-05-05 03:07 | 42.08212 | -71.76714 | 19920 ft | 392 kts | 261° |
| 2026-05-05 03:08 | 42.07675 | -71.80299 | 19909 ft | 392 kts | 260° |
| 2026-05-05 03:08 | 42.07114 | -71.83882 | 19907 ft | 390 kts | 260° |
| 2026-05-05 03:08 | 42.06555 | -71.87444 | 19917 ft | 394 kts | 260° |
| 2026-05-05 03:08 | 42.05994 | -71.91054 | 19913 ft | 394 kts | 260° |
| 2026-05-05 03:09 | 42.05441 | -71.94650 | 19919 ft | 394 kts | 261° |
| 2026-05-05 03:09 | 42.04889 | -71.98279 | 19907 ft | 393 kts | 261° |
| 2026-05-05 03:09 | 42.04348 | -72.01857 | 19910 ft | 393 kts | 261° |
| 2026-05-05 03:09 | 42.03804 | -72.05469 | 19910 ft | 394 kts | 261° |
| 2026-05-05 03:10 | 42.03263 | -72.09055 | 19907 ft | 394 kts | 261° |
| 2026-05-05 03:10 | 42.02718 | -72.12675 | 19911 ft | 393 kts | 261° |
| 2026-05-05 03:10 | 42.02180 | -72.16234 | 19905 ft | 394 kts | 261° |
| 2026-05-05 03:10 | 42.01630 | -72.19864 | 19910 ft | 393 kts | 261° |
| 2026-05-05 03:11 | 42.01083 | -72.23469 | 19918 ft | 393 kts | 261° |
| 2026-05-05 03:11 | 42.00536 | -72.27062 | 19897 ft | 393 kts | 261° |
| 2026-05-05 03:11 | 41.99991 | -72.30643 | 19913 ft | 393 kts | 261° |
| 2026-05-05 03:11 | 41.99446 | -72.34209 | 19893 ft | 393 kts | 261° |
| 2026-05-05 03:12 | 41.98900 | -72.37781 | 19909 ft | 392 kts | 261° |
| 2026-05-05 03:12 | 41.98344 | -72.41402 | 19911 ft | 392 kts | 261° |
| 2026-05-05 03:12 | 41.97796 | -72.44965 | 19914 ft | 392 kts | 261° |
| 2026-05-05 03:12 | 41.97245 | -72.48547 | 19912 ft | 393 kts | 261° |
| 2026-05-05 03:13 | 41.96693 | -72.52120 | 19911 ft | 393 kts | 261° |
| 2026-05-05 03:13 | 41.96138 | -72.55707 | 19911 ft | 392 kts | 261° |
| 2026-05-05 03:13 | 41.95575 | -72.59340 | 19917 ft | 394 kts | 261° |
| 2026-05-05 03:13 | 41.95019 | -72.62924 | 19914 ft | 394 kts | 261° |
| 2026-05-05 03:14 | 41.94458 | -72.66530 | 19913 ft | 394 kts | 260° |
| 2026-05-05 03:14 | 41.93869 | -72.70083 | 19915 ft | 394 kts | 258° |
| 2026-05-05 03:14 | 41.93128 | -72.73624 | 19913 ft | 395 kts | 255° |
| 2026-05-05 03:14 | 41.92287 | -72.77171 | 19916 ft | 396 kts | 254° |
| 2026-05-05 03:15 | 41.91426 | -72.80642 | 19913 ft | 395 kts | 254° |
| 2026-05-05 03:15 | 41.90552 | -72.84132 | 19913 ft | 396 kts | 254° |
| 2026-05-05 03:15 | 41.89676 | -72.87654 | 19911 ft | 396 kts | 254° |
| 2026-05-05 03:15 | 41.88817 | -72.91144 | 19914 ft | 395 kts | 254° |
| 2026-05-05 03:16 | 41.87968 | -72.94622 | 19916 ft | 396 kts | 254° |
| 2026-05-05 03:16 | 41.87117 | -72.98126 | 19904 ft | 395 kts | 254° |
| 2026-05-05 03:16 | 41.86264 | -73.01651 | 19916 ft | 397 kts | 255° |
| 2026-05-05 03:16 | 41.85407 | -73.05200 | 19906 ft | 396 kts | 255° |
| 2026-05-05 03:17 | 41.84629 | -73.08418 | 19908 ft | 395 kts | 255° |
| 2026-05-05 03:17 | 41.83767 | -73.11983 | 19916 ft | 394 kts | 255° |
| 2026-05-05 03:17 | 41.82927 | -73.15456 | 19910 ft | 395 kts | 255° |
| 2026-05-05 03:17 | 41.82081 | -73.18951 | 19920 ft | 397 kts | 255° |
| 2026-05-05 03:18 | 41.81223 | -73.22491 | 19907 ft | 395 kts | 255° |
| 2026-05-05 03:18 | 41.80375 | -73.25979 | 19920 ft | 394 kts | 255° |
| 2026-05-05 03:18 | 41.79533 | -73.29439 | 19918 ft | 396 kts | 255° |
| 2026-05-05 03:18 | 41.78677 | -73.32953 | 19918 ft | 394 kts | 255° |
| 2026-05-05 03:19 | 41.76977 | -73.39916 | 19923 ft | 395 kts | 254° |
| 2026-05-05 03:19 | 41.76117 | -73.43430 | 19917 ft | 396 kts | 255° |
| 2026-05-05 03:19 | 41.75264 | -73.46909 | 19921 ft | 395 kts | 254° |
| 2026-05-05 03:20 | 41.74412 | -73.50383 | 19917 ft | 401 kts | 254° |
| 2026-05-05 03:20 | 41.73526 | -73.53999 | 19757 ft | 409 kts | 254° |
| 2026-05-05 03:20 | 41.72646 | -73.57571 | 19314 ft | 405 kts | 254° |
| 2026-05-05 03:20 | 41.71774 | -73.61105 | 18750 ft | 397 kts | 254° |
| 2026-05-05 03:21 | 41.70919 | -73.64558 | 18108 ft | 391 kts | 254° |
| 2026-05-05 03:21 | 41.70061 | -73.68021 | 17431 ft | 386 kts | 253° |
| 2026-05-05 03:21 | 41.69229 | -73.71380 | 16801 ft | 381 kts | 253° |